Time;durP1;ratioP1;P1;durP2;ratioP2;P2;SDS_P1;SDS_P2;PMS_P1;PMS_P2;Temp;Humidity;BMP_temperature;BMP_pressure;BME280_temperature;BME280_humidity;BME280_pressure;Samples;Min_cycle;Max_cycle;Signal;HPM_P1;HPM_P2
2022/12/24 00:01:05;;;;;;;57.08;23.25;;;;;;;9.24;68.04;98008.31;4334017;33;20139;-79
2022/12/24 00:03:31;;;;;;;231.07;36.47;;;;;;;9.27;68.13;97998.56;4320681;33;20092;-81
2022/12/24 00:05:57;;;;;;;133.48;25.65;;;;;;;9.12;68.13;98006.47;4333699;33;20100;-81
2022/12/24 00:08:22;;;;;;;182.82;27.42;;;;;;;9.22;68.53;97998.84;4333984;33;20119;-80
2022/12/24 00:10:50;;;;;;;78.05;24.42;;;;;;;9.13;68.46;98002.88;4334090;33;20477;-80
2022/12/24 00:13:15;;;;;;;147.25;27.90;;;;;;;9.33;67.73;98003.44;4333871;33;20075;-80
2022/12/24 00:15:41;;;;;;;60.38;20.85;;;;;;;9.36;67.52;97987.47;4332798;33;20159;-80
2022/12/24 00:18:06;;;;;;;89.93;23.00;;;;;;;9.34;67.94;97994.63;4333483;33;20096;-80
2022/12/24 00:20:31;;;;;;;192.45;28.23;;;;;;;9.40;67.54;98000.31;4320556;33;20083;-80
2022/12/24 00:22:57;;;;;;;82.50;24.55;;;;;;;9.17;68.14;97999.13;4333308;33;20111;-79
2022/12/24 00:25:22;;;;;;;71.70;23.25;;;;;;;9.28;68.09;97982.69;4320480;33;20464;-80
2022/12/24 00:27:48;;;;;;;106.22;24.25;;;;;;;9.39;67.78;97982.03;4334156;33;20393;-81
2022/12/24 00:30:13;;;;;;;64.82;23.38;;;;;;;9.46;67.51;97983.31;4334659;33;20096;-79
2022/12/24 00:32:38;;;;;;;52.58;22.27;;;;;;;9.45;67.55;97979.84;4334822;33;20088;-80
2022/12/24 00:35:04;;;;;;;55.75;22.70;;;;;;;9.48;67.51;97999.84;4334926;33;20095;-81
2022/12/24 00:37:30;;;;;;;64.68;23.15;;;;;;;9.48;67.54;97999.84;4321399;33;20138;-81
2022/12/24 00:39:55;;;;;;;71.50;24.60;;;;;;;9.55;67.39;97997.69;4334892;33;20394;-80
2022/12/24 00:42:20;;;;;;;69.28;23.80;;;;;;;9.50;67.77;98008.47;4333707;33;20110;-78
2022/12/24 00:44:46;;;;;;;100.90;25.08;;;;;;;9.57;67.58;98022.09;4334961;33;20137;-79
2022/12/24 00:47:14;;;;;;;52.10;21.67;;;;;;;9.55;67.69;98039.75;4321518;33;20397;-77
2022/12/24 00:49:39;;;;;;;70.95;22.73;;;;;;;9.55;67.63;98045.84;4322216;33;20103;-80
2022/12/24 00:52:05;;;;;;;50.47;21.35;;;;;;;9.65;66.99;98019.81;4334677;33;20439;-77
2022/12/24 00:54:30;;;;;;;33.10;15.15;;;;;;;9.55;66.82;98016.94;4335026;33;20126;-78
2022/12/24 00:56:55;;;;;;;30.58;15.15;;;;;;;9.37;68.56;98013.69;4334496;33;20484;-77
2022/12/24 00:59:21;;;;;;;31.80;16.10;;;;;;;9.08;72.41;98028.59;4335086;33;20127;-77
2022/12/24 01:01:46;;;;;;;42.60;19.83;;;;;;;9.26;73.25;98024.00;4334825;33;20084;-79
2022/12/24 01:06:56;;;;;;;254.38;32.20;;;;;;;9.45;71.89;98010.56;4334090;33;20174;-77
2022/12/24 01:09:21;;;;;;;105.12;25.83;;;;;;;9.56;69.30;97994.97;4334916;33;20107;-78
2022/12/24 01:11:47;;;;;;;178.07;28.90;;;;;;;9.62;68.97;97981.44;4334517;33;20096;-79
2022/12/24 01:14:12;;;;;;;114.93;24.80;;;;;;;9.39;68.79;97975.00;4333634;33;20385;-79
2022/12/24 01:16:38;;;;;;;36.45;15.48;;;;;;;9.55;69.17;97971.41;4334076;33;20118;-77
2022/12/24 01:19:03;;;;;;;37.60;18.37;;;;;;;9.45;69.88;97963.25;4320964;33;20130;-78
2022/12/24 01:21:29;;;;;;;296.35;34.70;;;;;;;9.74;68.99;97945.59;4334683;33;20080;-77
2022/12/24 01:23:54;;;;;;;485.25;46.45;;;;;;;8.87;71.19;97966.87;4333665;33;20103;-79
2022/12/24 01:26:20;;;;;;;431.87;46.53;;;;;;;9.19;69.37;97963.09;4334670;33;20144;-79
2022/12/24 01:28:45;;;;;;;263.62;34.70;;;;;;;9.48;68.12;97949.06;4334863;33;20096;-78
2022/12/24 01:31:12;;;;;;;284.00;36.85;;;;;;;9.40;67.86;97946.91;4321071;33;20080;-78
2022/12/24 01:33:38;;;;;;;113.03;26.95;;;;;;;9.43;67.59;97944.09;4321740;33;20515;-81
2022/12/24 01:36:04;;;;;;;78.97;25.23;;;;;;;9.46;67.45;97922.84;4333401;33;20121;-81
2022/12/24 01:38:29;;;;;;;509.85;50.90;;;;;;;9.44;67.49;97916.84;4334688;33;20123;-81
2022/12/24 01:43:38;;;;;;;330.35;38.15;;;;;;;9.34;67.85;97929.75;4334385;33;20178;-80
2022/12/24 01:46:07;;;;;;;510.73;51.78;;;;;;;9.27;68.18;97927.59;4334151;33;20449;-80
2022/12/24 01:48:54;;;;;;;405.33;47.08;;;;;;;8.85;69.29;97936.28;4334625;33;20099;-81
2022/12/24 01:51:29;;;;;;;404.58;40.00;;;;;;;8.68;69.87;97936.47;4334188;33;20095;-80
2022/12/24 01:54:07;;;;;;;387.25;42.80;;;;;;;8.87;69.36;97954.56;4333426;33;20126;-81
2022/12/24 01:56:34;;;;;;;623.97;58.97;;;;;;;8.80;69.91;97953.25;4334138;33;20122;-82
2022/12/24 01:59:06;;;;;;;116.40;26.10;;;;;;;8.95;69.54;97944.44;4333040;33;20133;-80
2022/12/24 02:01:31;;;;;;;305.90;34.92;;;;;;;9.15;68.84;97951.06;4320991;33;20213;-81
2022/12/24 02:03:57;;;;;;;544.45;55.90;;;;;;;9.08;68.92;97943.66;4332966;33;20103;-81
2022/12/24 02:06:22;;;;;;;326.55;36.88;;;;;;;9.01;69.22;97935.34;4334178;33;20143;-81
2022/12/24 02:08:48;;;;;;;197.18;30.37;;;;;;;9.21;68.82;97942.84;4320383;33;20130;-81
2022/12/24 02:11:16;;;;;;;132.15;28.27;;;;;;;9.27;68.59;97931.06;4333199;33;20083;-80
2022/12/24 02:13:42;;;;;;;;;;;;;;;9.27;68.43;97932.84;4334550;33;20130;-80
2022/12/24 02:16:23;;;;;;;196.87;30.67;;;;;;;9.13;69.48;97939.81;4334325;33;19990;-80
2022/12/24 02:19:00;;;;;;;147.10;28.00;;;;;;;9.21;68.82;97949.84;4333797;33;21062;-80
2022/12/24 02:21:40;;;;;;;136.52;31.23;;;;;;;9.17;68.96;97946.56;4334186;33;20611;-79
2022/12/24 02:24:21;;;;;;;47.05;21.08;;;;;;;9.30;68.60;97949.28;4334022;33;20175;-80
2022/12/24 02:27:09;;;;;;;40.15;18.70;;;;;;;9.06;69.70;97985.81;4334355;33;20087;-80
2022/12/24 02:30:05;;;;;;;44.10;20.10;;;;;;;8.03;76.55;98003.16;4320500;33;20092;-81
2022/12/24 02:32:59;;;;;;;37.17;18.73;;;;;;;8.77;74.81;97985.81;4319828;33;20096;-80
2022/12/24 02:35:54;;;;;;;39.83;19.87;;;;;;;9.08;74.07;97967.31;4329021;33;20172;-81
2022/12/24 02:38:55;;;;;;;35.80;19.70;;;;;;;8.67;77.89;97966.25;4305448;33;20129;-80
2022/12/24 02:41:24;;;;;;;43.17;20.50;;;;;;;8.88;77.18;97965.91;4282955;33;20108;-81
2022/12/24 02:43:52;;;;;;;39.22;19.35;;;;;;;8.89;77.63;97963.19;4276071;33;20615;-80
2022/12/24 02:46:21;;;;;;;38.33;19.23;;;;;;;8.85;77.93;97956.44;4263961;33;20140;-80
2022/12/24 02:48:48;;;;;;;38.95;18.60;;;;;;;9.12;76.73;97942.56;4279016;33;20444;-80
2022/12/24 02:51:13;;;;;;;34.33;18.17;;;;;;;8.94;76.93;97950.63;4276407;33;20240;-81
2022/12/24 02:53:39;;;;;;;35.72;15.88;;;;;;;8.82;77.73;97961.88;4275871;33;20109;-81
2022/12/24 02:56:23;;;;;;;48.40;23.23;;;;;;;8.81;77.83;97960.22;4288169;33;20108;-82
2022/12/24 02:59:01;;;;;;;36.88;18.00;;;;;;;8.87;76.00;97959.81;4287261;33;20564;-81
2022/12/24 03:01:35;;;;;;;43.80;20.37;;;;;;;8.32;78.10;97953.41;4288150;33;20084;-81
2022/12/24 03:04:39;;;;;;;45.25;21.65;;;;;;;8.57;77.76;97965.13;4288000;33;20172;-81
2022/12/24 03:07:26;;;;;;;43.97;21.67;;;;;;;9.42;73.18;97966.06;4281633;33;20164;-81
2022/12/24 03:09:54;;;;;;;49.45;23.02;;;;;;;9.69;71.43;97981.03;4287786;33;20161;-80
2022/12/24 03:12:26;;;;;;;49.22;22.85;;;;;;;9.77;70.51;97990.13;4287690;33;20493;-81
2022/12/24 03:14:51;;;;;;;38.75;20.48;;;;;;;9.86;69.41;97999.22;4275885;33;20123;-81
2022/12/24 03:17:18;;;;;;;39.83;20.85;;;;;;;9.31;71.56;98008.81;4315954;33;20151;-80
2022/12/24 03:19:44;;;;;;;37.58;20.27;;;;;;;9.69;70.26;97991.56;4308347;33;20144;-82
2022/12/24 03:22:10;;;;;;;39.70;20.75;;;;;;;9.37;72.09;97989.19;4331871;33;20106;-82
2022/12/24 03:24:36;;;;;;;38.45;20.98;;;;;;;9.31;73.37;97963.25;4320210;33;20084;-81
2022/12/24 03:27:04;;;;;;;35.38;19.23;;;;;;;9.64;71.97;97953.25;4319758;33;20134;-81
2022/12/24 03:29:29;;;;;;;37.00;19.00;;;;;;;9.30;73.78;97946.66;4320430;33;20095;-82
2022/12/24 03:31:59;;;;;;;35.70;19.37;;;;;;;9.71;72.44;97935.28;4319779;33;20489;-79
2022/12/24 03:34:25;;;;;;;33.70;19.00;;;;;;;9.59;73.06;97947.44;4320052;33;20469;-80
2022/12/24 03:36:50;;;;;;;35.90;19.42;;;;;;;9.58;72.50;97958.03;4331750;33;20101;-81
2022/12/24 03:39:16;;;;;;;37.28;18.65;;;;;;;9.88;71.16;97949.97;4333210;33;20087;-79
2022/12/24 03:41:41;;;;;;;37.53;20.05;;;;;;;9.92;71.11;97961.13;4333189;33;20079;-79
2022/12/24 03:44:07;;;;;;;28.35;15.07;;;;;;;9.98;70.83;97958.94;4333150;33;20132;-80
2022/12/24 03:46:32;;;;;;;27.73;13.98;;;;;;;9.86;71.10;97954.47;4332826;33;20096;-78
2022/12/24 03:48:57;;;;;;;25.20;13.35;;;;;;;9.37;73.73;97966.37;4319878;33;20126;-80
2022/12/24 03:51:24;;;;;;;25.67;12.77;;;;;;;9.17;75.55;97979.88;4332882;33;20365;-78
2022/12/24 03:53:53;;;;;;;25.02;12.15;;;;;;;9.30;74.87;97990.50;4319980;33;20092;-80
2022/12/24 03:56:20;;;;;;;25.62;13.00;;;;;;;9.30;74.51;97986.06;4320976;33;20495;-80
2022/12/24 03:58:45;;;;;;;27.90;13.68;;;;;;;9.73;73.20;97990.41;4320247;33;20178;-79
2022/12/24 04:01:10;;;;;;;28.17;13.77;;;;;;;8.88;76.76;97992.19;4333859;33;20468;-79
2022/12/24 04:03:36;;;;;;;26.08;12.52;;;;;;;9.29;74.42;97983.53;4335220;33;20113;-79
2022/12/24 04:06:06;;;;;;;25.20;12.07;;;;;;;9.37;74.10;97987.38;4333610;33;20494;-78
2022/12/24 04:08:32;;;;;;;23.38;10.75;;;;;;;9.18;74.55;97979.81;4322031;33;20123;-79
2022/12/24 04:10:57;;;;;;;23.70;11.57;;;;;;;8.96;75.70;97982.03;4321350;33;20104;-79
2022/12/24 04:13:22;;;;;;;25.70;12.05;;;;;;;9.09;75.90;97983.00;4334420;33;20095;-79
2022/12/24 04:16:17;;;;;;;26.40;11.40;;;;;;;9.23;75.28;97985.62;4335029;33;20323;-80
2022/12/24 04:18:43;;;;;;;21.77;11.05;;;;;;;9.29;75.31;97997.53;4321784;33;20139;-80
2022/12/24 04:21:09;;;;;;;22.48;10.98;;;;;;;9.01;76.83;97993.97;4321563;33;20135;-80
2022/12/24 04:23:36;;;;;;;21.30;10.70;;;;;;;9.31;74.24;98006.19;4334716;33;20115;-79
2022/12/24 04:26:03;;;;;;;20.65;10.20;;;;;;;9.36;74.29;98003.25;4321896;33;20176;-79
2022/12/24 04:28:30;;;;;;;20.67;10.38;;;;;;;9.56;73.41;97997.59;4321790;33;20096;-80
2022/12/24 04:30:59;;;;;;;23.15;10.68;;;;;;;9.49;73.44;98009.44;4321927;33;21017;-80
2022/12/24 04:33:25;;;;;;;20.52;9.07;;;;;;;9.50;74.56;98012.91;4334942;33;20144;-79
2022/12/24 04:35:50;;;;;;;20.70;9.63;;;;;;;9.47;73.53;98011.31;4335047;33;20123;-80
2022/12/24 04:38:15;;;;;;;20.15;9.02;;;;;;;10.01;71.14;97989.50;4335052;33;20120;-79
2022/12/24 04:40:41;;;;;;;18.20;7.87;;;;;;;9.59;72.81;97993.91;4335143;33;20113;-81
2022/12/24 04:43:06;;;;;;;17.27;8.95;;;;;;;9.92;71.35;97997.97;4334765;33;20127;-81
2022/12/24 04:45:32;;;;;;;16.87;8.07;;;;;;;10.10;70.95;97986.25;4335397;33;20389;-82
2022/12/24 04:47:57;;;;;;;17.80;8.20;;;;;;;9.63;72.28;97998.88;4334626;33;20178;-81
2022/12/24 04:50:22;;;;;;;16.58;8.52;;;;;;;10.07;70.86;97994.34;4321790;33;20079;-80
2022/12/24 04:52:48;;;;;;;17.85;8.32;;;;;;;10.10;70.39;97994.16;4334808;33;20101;-79
2022/12/24 04:55:13;;;;;;;18.67;8.90;;;;;;;9.81;71.65;97993.38;4321642;33;20155;-80
2022/12/24 04:57:39;;;;;;;19.80;10.07;;;;;;;9.86;72.15;97995.75;4334591;33;20121;-80
2022/12/24 05:00:06;;;;;;;19.45;8.43;;;;;;;9.53;73.32;97997.78;4334411;33;20092;-80
2022/12/24 05:02:31;;;;;;;18.17;8.20;;;;;;;9.71;72.37;98008.91;4333383;33;20092;-80
2022/12/24 05:04:56;;;;;;;17.40;8.73;;;;;;;9.86;71.79;98014.16;4334734;33;20119;-80
2022/12/24 05:07:22;;;;;;;16.12;7.80;;;;;;;9.42;73.57;98005.50;4334368;33;20118;-81
2022/12/24 05:09:47;;;;;;;17.77;7.87;;;;;;;9.93;70.67;97997.00;4321420;33;20096;-80
2022/12/24 05:12:13;;;;;;;15.95;7.87;;;;;;;9.79;71.96;98003.16;4320583;33;20113;-79
2022/12/24 05:14:39;;;;;;;18.25;8.50;;;;;;;9.57;71.96;98027.37;4334775;33;20456;-79
2022/12/24 05:17:04;;;;;;;18.20;8.55;;;;;;;9.57;72.98;98030.00;4334350;33;20095;-80
2022/12/24 05:19:30;;;;;;;17.65;7.60;;;;;;;9.63;72.00;98014.66;4321386;33;20088;-81
2022/12/24 05:27:23;;;;;;;18.23;8.52;;;;;;;9.71;72.28;98024.69;4335437;33;20486;-82
2022/12/24 05:29:48;;;;;;;17.25;8.18;;;;;;;9.78;71.77;98030.44;4335252;33;20084;-82
2022/12/24 05:32:14;;;;;;;15.02;6.57;;;;;;;9.98;71.36;98035.25;4335171;33;20126;-81
2022/12/24 05:34:39;;;;;;;15.15;6.90;;;;;;;10.42;69.00;98030.69;4333682;33;20114;-82
2022/12/24 05:37:04;;;;;;;15.68;7.32;;;;;;;10.20;70.17;98033.87;4334956;33;20076;-81
2022/12/24 05:39:30;;;;;;;16.02;6.45;;;;;;;9.86;71.63;98043.09;4335078;33;20143;-81
2022/12/24 05:41:55;;;;;;;14.98;6.78;;;;;;;9.76;71.74;98050.72;4334072;33;20110;-82
2022/12/24 05:44:21;;;;;;;15.65;6.18;;;;;;;10.39;69.39;98034.37;4334900;33;20461;-81
2022/12/24 05:46:46;;;;;;;15.60;6.47;;;;;;;10.29;69.89;98049.06;4335080;33;20130;-82
2022/12/24 05:49:12;;;;;;;15.57;6.90;;;;;;;10.18;70.45;98048.94;4335229;33;20433;-82
2022/12/24 05:51:39;;;;;;;14.95;6.70;;;;;;;10.02;70.84;98049.91;4335033;33;20106;-81
2022/12/24 05:54:04;;;;;;;14.32;6.05;;;;;;;10.36;69.69;98039.00;4333899;33;20099;-81
2022/12/24 05:56:30;;;;;;;17.52;5.80;;;;;;;10.15;70.18;98044.69;4334991;33;20152;-81
2022/12/24 05:58:56;;;;;;;15.82;6.15;;;;;;;10.15;70.57;98046.47;4321553;33;20398;-81
2022/12/24 06:01:22;;;;;;;13.93;5.62;;;;;;;10.37;69.83;98041.56;4333980;33;20075;-80
2022/12/24 06:03:48;;;;;;;13.90;5.65;;;;;;;10.35;70.07;98032.91;4335040;33;20158;-80
2022/12/24 06:06:20;;;;;;;12.98;5.22;;;;;;;10.08;70.90;98042.56;4334854;33;20092;-80
2022/12/24 06:08:46;;;;;;;13.70;5.37;;;;;;;10.42;70.26;98038.59;4334033;33;20110;-80
2022/12/24 06:11:14;;;;;;;12.63;5.22;;;;;;;10.20;71.13;98036.50;4321650;33;20105;-80
2022/12/24 06:13:40;;;;;;;;;;;;;;;10.36;70.06;98033.75;4322058;33;20174;-79
2022/12/24 06:16:07;;;;;;;12.27;4.93;;;;;;;10.65;69.60;98030.97;4334918;33;20027;-81
2022/12/24 06:18:34;;;;;;;12.48;4.70;;;;;;;10.69;69.13;98033.28;4334859;33;20088;-79
2022/12/24 06:21:00;;;;;;;12.77;4.78;;;;;;;10.30;70.53;98037.63;4332962;33;20182;-81
2022/12/24 06:23:28;;;;;;;12.68;5.00;;;;;;;9.76;73.57;98042.84;4309261;33;20088;-81
2022/12/24 06:25:55;;;;;;;12.37;5.20;;;;;;;9.97;72.96;98045.88;4321521;33;20142;-81
2022/12/24 06:28:21;;;;;;;13.40;5.40;;;;;;;10.54;70.02;98048.31;4334848;33;20436;-80
2022/12/24 06:30:48;;;;;;;13.25;5.55;;;;;;;10.31;70.82;98049.00;4334774;33;20102;-81
2022/12/24 06:33:14;;;;;;;13.50;5.22;;;;;;;10.57;69.63;98047.28;4334833;33;20099;-81
2022/12/24 06:35:39;;;;;;;12.88;5.68;;;;;;;10.56;69.76;98051.69;4334766;33;20083;-81
2022/12/24 06:38:05;;;;;;;12.55;5.07;;;;;;;10.78;68.52;98042.37;4321266;33;20079;-81
2022/12/24 06:40:30;;;;;;;15.35;6.12;;;;;;;10.78;68.04;98045.84;4334744;33;20071;-81
2022/12/24 06:42:55;;;;;;;12.80;5.35;;;;;;;10.55;69.01;98039.47;4334690;33;20075;-81
2022/12/24 06:45:21;;;;;;;15.85;6.22;;;;;;;10.16;70.93;98062.19;4334618;33;20094;-80
2022/12/24 06:47:46;;;;;;;15.48;6.65;;;;;;;10.10;70.45;98061.72;4334688;33;20111;-80
2022/12/24 06:50:12;;;;;;;14.00;6.15;;;;;;;10.16;70.69;98064.81;4334518;33;20072;-80
2022/12/24 06:52:37;;;;;;;14.90;6.43;;;;;;;10.38;69.79;98073.97;4321185;33;20138;-80
2022/12/24 06:55:04;;;;;;;15.27;6.45;;;;;;;10.38;69.80;98081.88;4334539;33;20135;-82
2022/12/24 06:57:30;;;;;;;15.25;5.68;;;;;;;10.76;68.29;98076.72;4321281;33;20123;-81
2022/12/24 06:59:56;;;;;;;13.65;5.80;;;;;;;10.40;69.68;98080.00;4334595;33;20488;-82
2022/12/24 07:02:23;;;;;;;12.90;5.00;;;;;;;10.23;70.40;98086.31;4334506;33;20154;-81
2022/12/24 07:04:48;;;;;;;12.75;5.45;;;;;;;10.48;69.62;98085.59;4334510;33;20087;-81
2022/12/24 07:07:13;;;;;;;12.40;5.15;;;;;;;10.11;70.44;98089.75;4334350;33;20122;-81
2022/12/24 07:09:39;;;;;;;11.63;4.60;;;;;;;10.43;69.71;98098.22;4334379;33;20092;-81
2022/12/24 07:12:04;;;;;;;11.82;4.35;;;;;;;10.36;69.91;98099.56;4333192;33;20445;-81
2022/12/24 07:14:31;;;;;;;11.98;4.45;;;;;;;10.71;67.94;98091.97;4334332;33;20088;-79
2022/12/24 07:16:57;;;;;;;10.35;4.30;;;;;;;10.32;69.68;98093.66;4333195;33;20139;-81
2022/12/24 07:19:22;;;;;;;12.05;4.28;;;;;;;10.72;68.58;98085.78;4333371;33;20452;-80
2022/12/24 07:21:48;;;;;;;10.68;3.92;;;;;;;10.44;69.66;98089.38;4333089;33;20126;-81
2022/12/24 07:24:14;;;;;;;10.85;3.70;;;;;;;10.41;69.61;98098.31;4334199;33;20092;-81
2022/12/24 07:26:40;;;;;;;12.20;4.00;;;;;;;10.49;69.49;98097.81;4334156;33;20357;-81
2022/12/24 07:29:05;;;;;;;11.38;3.60;;;;;;;10.51;69.23;98090.66;4334158;33;20103;-81
2022/12/24 07:31:30;;;;;;;8.90;2.75;;;;;;;10.62;69.04;98105.75;4334027;33;20107;-82
2022/12/24 07:33:56;;;;;;;8.32;2.50;;;;;;;10.89;67.69;98110.16;4335110;33;20103;-81
2022/12/24 07:36:21;;;;;;;8.55;2.53;;;;;;;11.03;66.69;98102.19;4322535;33;20441;-81
2022/12/24 07:38:47;;;;;;;9.38;2.35;;;;;;;11.41;65.87;98112.75;4335880;33;20116;-81
2022/12/24 07:41:13;;;;;;;8.48;2.37;;;;;;;11.53;66.65;98112.81;4336034;33;20103;-81
2022/12/24 07:43:39;;;;;;;7.00;2.08;;;;;;;11.58;65.77;98116.84;4322475;33;20402;-81
2022/12/24 07:46:04;;;;;;;6.30;2.10;;;;;;;11.56;65.44;98120.53;4322443;33;20103;-81
2022/12/24 07:48:31;;;;;;;6.78;2.17;;;;;;;12.00;63.52;98127.16;4334764;33;20114;-82
2022/12/24 07:50:57;;;;;;;9.60;3.03;;;;;;;11.76;64.23;98135.84;4335870;33;20539;-81
2022/12/24 07:53:23;;;;;;;8.82;2.55;;;;;;;12.10;63.32;98151.94;4322532;33;20122;-81
2022/12/24 07:55:49;;;;;;;6.70;2.20;;;;;;;11.84;63.83;98147.63;4322659;33;20164;-82
2022/12/24 07:58:14;;;;;;;6.85;1.90;;;;;;;11.67;64.67;98148.81;4334981;33;20362;-83
2022/12/24 08:00:40;;;;;;;8.80;2.20;;;;;;;11.92;63.92;98156.75;4335107;33;20123;-82
2022/12/24 08:03:05;;;;;;;9.50;2.85;;;;;;;12.42;62.51;98151.47;4336173;33;20084;-81
2022/12/24 08:05:36;;;;;;;7.85;2.60;;;;;;;12.51;62.16;98163.97;4335967;33;20110;-81
2022/12/24 08:08:02;;;;;;;8.98;2.83;;;;;;;12.20;62.82;98160.06;4336056;33;20067;-81
2022/12/24 08:10:27;;;;;;;10.50;3.35;;;;;;;12.45;62.43;98168.88;4334782;33;20126;-81
2022/12/24 08:12:53;;;;;;;10.98;3.12;;;;;;;12.73;61.57;98170.38;4335971;33;20110;-81
2022/12/24 08:15:18;;;;;;;5.80;1.77;;;;;;;12.28;63.21;98178.84;4334714;33;20079;-84
2022/12/24 08:17:44;;;;;;;8.52;2.30;;;;;;;11.71;64.25;98187.25;4331802;33;20088;-83
2022/12/24 08:20:10;;;;;;;9.07;3.30;;;;;;;12.38;63.14;98197.50;4321207;33;20133;-83
2022/12/24 08:22:35;;;;;;;7.60;2.28;;;;;;;12.64;62.12;98202.75;4335150;33;20100;-84
2022/12/24 08:25:01;;;;;;;7.22;2.10;;;;;;;12.39;62.65;98202.69;4335147;33;20080;-84
2022/12/24 08:27:26;;;;;;;7.15;2.20;;;;;;;12.74;61.46;98209.87;4321717;33;20368;-76
2022/12/24 08:29:51;;;;;;;8.68;2.47;;;;;;;12.44;62.79;98215.59;4334832;33;20436;-80
2022/12/24 08:32:17;;;;;;;7.15;1.80;;;;;;;12.76;61.72;98222.97;4334030;33;20405;-82
2022/12/24 08:34:42;;;;;;;5.87;1.42;;;;;;;12.52;62.06;98215.88;4334836;33;20087;-83
2022/12/24 08:37:08;;;;;;;7.22;1.50;;;;;;;12.08;64.06;98237.50;4334213;33;20130;-84
2022/12/24 08:39:33;;;;;;;6.28;1.50;;;;;;;12.41;62.98;98241.37;4334960;33;20119;-81
2022/12/24 08:41:59;;;;;;;5.12;1.37;;;;;;;12.24;63.37;98243.41;4335132;33;20088;-81
2022/12/24 08:44:24;;;;;;;5.18;1.40;;;;;;;12.17;63.68;98255.34;4320921;33;20087;-82
2022/12/24 08:46:49;;;;;;;6.93;1.70;;;;;;;12.64;62.16;98252.94;4335082;33;20089;-83
2022/12/24 08:49:15;;;;;;;5.78;1.77;;;;;;;12.57;62.11;98261.31;4333729;33;20108;-83
2022/12/24 08:51:40;;;;;;;8.00;2.30;;;;;;;12.49;62.97;98265.44;4335326;33;20092;-84
2022/12/24 08:54:06;;;;;;;7.47;2.35;;;;;;;12.45;62.67;98271.91;4334461;33;20183;-83
2022/12/24 08:56:33;;;;;;;6.68;2.58;;;;;;;12.91;61.44;98272.09;4335086;33;20084;-85
2022/12/24 08:58:59;;;;;;;7.53;2.17;;;;;;;12.61;62.50;98261.09;4334974;33;20123;-82
2022/12/24 09:01:24;;;;;;;7.90;2.10;;;;;;;12.52;62.64;98254.69;4318825;33;89939;-83
2022/12/24 09:03:49;;;;;;;8.07;2.50;;;;;;;12.19;63.26;98249.00;4334566;33;20151;-82
2022/12/24 09:06:15;;;;;;;5.57;1.60;;;;;;;11.93;64.17;98264.00;4334201;33;20103;-82
2022/12/24 09:08:41;;;;;;;6.57;1.67;;;;;;;12.25;62.46;98265.38;4334464;33;20122;-83
2022/12/24 09:11:09;;;;;;;5.82;1.60;;;;;;;11.87;63.32;98269.66;4321481;33;20137;-82
2022/12/24 09:13:35;;;;;;;5.68;1.50;;;;;;;11.75;62.80;98275.78;4334660;33;20134;-83
2022/12/24 09:16:00;;;;;;;4.95;1.30;;;;;;;11.36;63.78;98282.78;4321528;33;20345;-81
2022/12/24 09:18:26;;;;;;;5.22;1.35;;;;;;;12.27;61.18;98276.69;4334013;33;20394;-84
2022/12/24 09:20:51;;;;;;;3.90;1.12;;;;;;;12.01;60.56;98279.31;4333794;33;20429;-83
2022/12/24 09:23:17;;;;;;;5.07;1.10;;;;;;;12.09;60.22;98303.41;4320875;33;20104;-83
2022/12/24 09:25:43;;;;;;;4.05;1.10;;;;;;;12.28;58.90;98288.94;4321463;33;20121;-81
2022/12/24 09:28:08;;;;;;;4.03;1.15;;;;;;;12.28;59.09;98292.41;4334279;33;20167;-79
2022/12/24 09:30:35;;;;;;;4.43;1.20;;;;;;;12.50;58.26;98299.69;4334539;33;20088;-80
2022/12/24 09:33:01;;;;;;;6.75;1.35;;;;;;;12.50;58.66;98297.03;4334326;33;20104;-80
2022/12/24 09:35:26;;;;;;;3.25;1.10;;;;;;;12.89;57.05;98300.44;4322512;33;20087;-81
2022/12/24 09:38:01;;;;;;;5.80;1.55;;;;;;;12.79;57.27;98294.13;4334336;33;20163;-82
2022/12/24 09:40:40;;;;;;;5.95;1.20;;;;;;;12.40;58.74;98311.88;4334701;33;20096;-88
2022/12/24 09:43:22;;;;;;;5.25;1.23;;;;;;;13.01;57.21;98304.00;4334448;33;20127;-82
2022/12/24 09:46:06;;;;;;;6.20;1.50;;;;;;;13.36;57.02;98309.37;4333724;33;20154;-85
2022/12/24 09:48:34;;;;;;;6.05;1.90;;;;;;;13.02;58.65;98312.78;4333103;33;20472;-84
2022/12/24 09:51:11;;;;;;;7.62;1.92;;;;;;;13.57;58.01;98312.25;4321116;33;20752;-84
2022/12/24 09:53:41;;;;;;;6.47;2.05;;;;;;;13.88;57.51;98296.72;4323511;33;20118;-86
2022/12/24 09:56:13;;;;;;;10.48;2.20;;;;;;;13.70;57.54;98306.88;4333128;33;20091;-84
2022/12/24 09:58:42;;;;;;;8.07;2.28;;;;;;;13.46;58.83;98316.66;4333606;33;20115;-90
2022/12/24 10:01:12;;;;;;;8.27;2.20;;;;;;;13.36;59.30;98308.56;4332954;33;20111;-84
2022/12/24 10:03:37;;;;;;;8.07;2.10;;;;;;;13.16;59.18;98320.56;4321407;33;20100;-84
2022/12/24 10:06:06;;;;;;;9.20;2.10;;;;;;;13.40;58.36;98312.66;4320330;33;20107;-83
2022/12/24 10:08:54;;;;;;;8.52;2.10;;;;;;;13.07;59.33;98319.41;4334356;33;20088;-84
2022/12/24 10:11:29;;;;;;;6.70;1.60;;;;;;;12.95;59.53;98323.78;4334182;33;20084;-85
2022/12/24 10:14:32;;;;;;;6.05;1.70;;;;;;;12.58;60.34;98320.28;4321766;33;20147;-84
2022/12/24 10:17:01;;;;;;;5.40;1.65;;;;;;;12.43;60.49;98331.94;4332705;33;20107;-85
2022/12/24 10:19:46;;;;;;;6.97;1.83;;;;;;;12.77;60.14;98325.97;4322145;33;20785;-83
2022/12/24 10:22:30;;;;;;;7.43;2.15;;;;;;;12.85;59.86;98332.50;4320869;33;20111;-78
2022/12/24 10:25:20;;;;;;;5.93;1.55;;;;;;;12.91;59.95;98326.78;4334077;33;20154;-82
2022/12/24 10:27:57;;;;;;;7.50;1.48;;;;;;;12.58;59.27;98329.06;4320575;33;20114;-84
2022/12/24 10:30:23;;;;;;;7.75;2.28;;;;;;;12.64;60.08;98325.13;4320389;33;20127;-84
2022/12/24 10:32:50;;;;;;;7.20;1.60;;;;;;;13.00;59.54;98336.69;4320827;33;20380;-84
2022/12/24 10:35:16;;;;;;;8.55;1.55;;;;;;;13.50;57.59;98332.22;4320347;33;20072;-86
2022/12/24 10:37:43;;;;;;;7.65;1.48;;;;;;;13.21;58.84;98344.88;4334289;33;20114;-85
2022/12/24 10:40:36;;;;;;;8.13;1.70;;;;;;;13.22;57.93;98335.97;4320501;33;20166;-84
2022/12/24 10:43:11;;;;;;;6.30;1.58;;;;;;;13.44;57.93;98340.56;4333932;33;20103;-84
2022/12/24 10:45:39;;;;;;;6.78;1.80;;;;;;;12.86;59.53;98342.94;4320461;33;20441;-86
2022/12/24 10:48:08;;;;;;;7.50;1.60;;;;;;;13.15;58.57;98343.53;4343178;33;20459;-86
2022/12/24 10:50:39;;;;;;;7.43;1.77;;;;;;;13.40;58.62;98344.41;4348151;33;20095;-89
2022/12/24 10:53:31;;;;;;;5.45;1.60;;;;;;;13.65;57.76;98340.78;4335896;33;20467;-87
2022/12/24 10:56:05;;;;;;;6.78;1.80;;;;;;;13.38;58.24;98343.66;4317353;33;20352;-87
2022/12/24 10:58:31;;;;;;;7.95;1.75;;;;;;;13.24;58.16;98343.81;4317854;33;20092;-88
2022/12/24 11:00:57;;;;;;;7.45;1.75;;;;;;;13.35;58.59;98354.50;4314700;33;20449;-87
2022/12/24 11:03:33;;;;;;;4.93;1.40;;;;;;;13.40;58.19;98354.16;4301802;33;20134;-87
2022/12/24 11:06:00;;;;;;;6.72;1.70;;;;;;;13.23;58.36;98360.63;4301280;33;20109;-87
2022/12/24 11:08:26;;;;;;;7.07;1.58;;;;;;;12.91;58.44;98359.34;4301886;33;20096;-87
2022/12/24 11:10:59;;;;;;;5.50;1.42;;;;;;;13.33;57.33;98365.19;4302056;33;20155;-86
2022/12/24 11:13:39;;;;;;;7.32;1.70;;;;;;;13.76;56.18;98363.81;4301990;33;20488;-88
2022/12/24 11:16:09;;;;;;;8.52;1.73;;;;;;;13.30;57.33;98368.03;4301980;33;20126;-88
2022/12/24 11:18:38;;;;;;;6.90;1.83;;;;;;;13.31;56.74;98360.97;4302868;33;20120;-87
2022/12/24 11:21:04;;;;;;;8.02;1.55;;;;;;;13.09;57.32;98370.41;4302816;33;20136;-88
2022/12/24 11:23:29;;;;;;;6.57;1.20;;;;;;;12.62;55.16;98373.78;4303044;33;20166;-87
2022/12/24 11:25:56;;;;;;;6.25;1.20;;;;;;;12.97;53.97;98360.72;4302702;33;20179;-87
2022/12/24 11:28:24;;;;;;;7.65;1.10;;;;;;;12.75;52.81;98374.59;4303027;33;20176;-87
2022/12/24 11:31:06;;;;;;;5.25;1.00;;;;;;;12.57;53.15;98384.66;4302833;33;20180;-87
2022/12/24 11:33:45;;;;;;;5.25;1.20;;;;;;;12.14;53.71;98375.22;4306042;33;20172;-88
2022/12/24 11:36:12;;;;;;;7.53;0.98;;;;;;;12.58;52.94;98389.00;4318366;33;20092;-87
2022/12/24 11:38:38;;;;;;;5.28;0.80;;;;;;;12.67;53.43;98380.44;4318397;33;20119;-88
2022/12/24 11:41:10;;;;;;;8.43;1.33;;;;;;;12.70;53.57;98382.84;4318140;33;20108;-88
2022/12/24 11:43:46;;;;;;;7.05;1.02;;;;;;;12.58;52.58;98381.91;4318426;33;20113;-89
2022/12/24 11:46:36;;;;;;;4.70;1.00;;;;;;;12.67;52.38;98382.19;4318308;33;20122;-88